Terminal Aerodrome Forecast
Issued by NWS

Home | Current Version | Previous Version | Text Only | Print | Product List | Glossary On
Versions: 1 2 3 4 5 6 7 8 9 10 11 12 13 14 15 16 17 18 19 20
946
FTUS45 KABQ 301354 AAA
TAFLVS
TAF AMD
KLVS 301354Z 3014/0112 04006KT 1SM BR SCT001 BKN008
      TEMPO 3014/3015 1/2SM FZFG OVC001
     FM301600 14007KT P6SM BKN050
     FM302100 16014G20KT P6SM VCSH BKN060
     FM010100 07014G22KT P6SM OVC015
     FM010300 04015G25KT 4SM -RA OVC010
     FM010600 03015G25KT 3SM -RA BR OVC004=

USA.gov is the U.S. government's official web portal to all federal, state and local government web resources and services.